Time;durP1;ratioP1;P1;durP2;ratioP2;P2;SDS_P1;SDS_P2;PMS_P1;PMS_P2;Temp;Humidity;BMP_temperature;BMP_pressure;BME280_temperature;BME280_humidity;BME280_pressure;Samples;Min_cycle;Max_cycle;Signal;HPM_P1;HPM_P2
2021/11/03 00:02:05;;;;;;;24.85;14.30;;;;;;;;;;4978648;28;20062;-67
2021/11/03 00:04:34;;;;;;;27.20;15.50;;;;;;;;;;4992957;28;20085;-67
2021/11/03 00:07:00;;;;;;;30.63;15.70;;;;;;;;;;4993211;28;20050;-67
2021/11/03 00:09:27;;;;;;;36.92;18.25;;;;;;;;;;4978441;28;20050;-66
2021/11/03 00:11:53;;;;;;;44.22;18.17;;;;;;;;;;4992520;28;20046;-67
2021/11/03 00:14:19;;;;;;;50.90;19.25;;;;;;;;;;4984198;28;20046;-67
2021/11/03 00:16:46;;;;;;;155.13;22.55;;;;;;;;;;5000326;28;20053;-67
2021/11/03 00:19:12;;;;;;;120.55;22.70;;;;;;;;;;4992060;28;20097;-68
2021/11/03 00:21:38;;;;;;;86.88;22.38;;;;;;;;;;5001468;28;20058;-67
2021/11/03 00:24:05;;;;;;;71.55;21.67;;;;;;;;;;5002652;28;20058;-67
2021/11/03 00:26:31;;;;;;;108.43;21.77;;;;;;;;;;4990741;28;20061;-67
2021/11/03 00:28:57;;;;;;;51.08;22.20;;;;;;;;;;4997064;28;20125;-67
2021/11/03 00:31:24;;;;;;;48.80;21.77;;;;;;;;;;4997472;28;20057;-67
2021/11/03 00:33:50;;;;;;;44.30;20.60;;;;;;;;;;5006427;28;20589;-67
2021/11/03 00:36:17;;;;;;;42.55;19.67;;;;;;;;;;4994822;28;20429;-67
2021/11/03 00:38:43;;;;;;;61.97;19.17;;;;;;;;;;5002326;28;20068;-67
2021/11/03 00:41:10;;;;;;;39.50;19.92;;;;;;;;;;5006764;28;20054;-67
2021/11/03 00:43:36;;;;;;;75.70;22.58;;;;;;;;;;4968323;28;20481;-67
2021/11/03 00:46:03;;;;;;;47.75;21.33;;;;;;;;;;5007065;28;20068;-67
2021/11/03 00:48:30;;;;;;;51.55;20.73;;;;;;;;;;4995107;28;20538;-67
2021/11/03 00:50:56;;;;;;;47.10;20.48;;;;;;;;;;4994186;28;20070;-67
2021/11/03 00:53:23;;;;;;;39.40;20.63;;;;;;;;;;4999804;28;20049;-67
2021/11/03 00:55:49;;;;;;;37.28;20.60;;;;;;;;;;5006488;28;20050;-67
2021/11/03 00:58:15;;;;;;;34.22;20.05;;;;;;;;;;5006475;28;20500;-67
2021/11/03 01:00:42;;;;;;;36.78;19.65;;;;;;;;;;4994956;28;20073;-67
2021/11/03 01:03:09;;;;;;;50.05;21.77;;;;;;;;;;5001026;28;20779;-67
2021/11/03 01:05:38;;;;;;;41.80;21.52;;;;;;;;;;4994947;28;20057;-67
2021/11/03 01:08:05;;;;;;;84.78;23.55;;;;;;;;;;5010507;28;20060;-67
2021/11/03 01:10:33;;;;;;;197.18;24.25;;;;;;;;;;5004080;28;20052;-67
2021/11/03 01:12:59;;;;;;;265.83;26.50;;;;;;;;;;5003638;28;20050;-67
2021/11/03 01:15:26;;;;;;;94.90;21.95;;;;;;;;;;4989678;28;20478;-67
2021/11/03 01:17:55;;;;;;;180.13;22.77;;;;;;;;;;4982526;28;20065;-67
2021/11/03 01:20:22;;;;;;;192.23;22.63;;;;;;;;;;4993507;28;20050;-67
2021/11/03 01:22:48;;;;;;;172.07;21.77;;;;;;;;;;4996295;28;20074;-67
2021/11/03 01:25:14;;;;;;;162.30;20.63;;;;;;;;;;5004980;28;20062;-67
2021/11/03 01:27:41;;;;;;;66.80;19.77;;;;;;;;;;5001806;28;20054;-68
2021/11/03 01:30:09;;;;;;;100.85;18.98;;;;;;;;;;5009374;28;20046;-68
2021/11/03 01:32:35;;;;;;;41.33;16.45;;;;;;;;;;4992930;28;20049;-67
2021/11/03 01:35:02;;;;;;;74.93;17.08;;;;;;;;;;5000305;28;20050;-67
2021/11/03 01:37:29;;;;;;;73.97;17.42;;;;;;;;;;5009123;28;20049;-66
2021/11/03 01:39:56;;;;;;;68.22;19.17;;;;;;;;;;5002748;28;20073;-66
2021/11/03 01:42:22;;;;;;;37.90;18.17;;;;;;;;;;5002393;28;20050;-67
2021/11/03 01:44:48;;;;;;;43.45;19.45;;;;;;;;;;4989008;28;20061;-66
2021/11/03 01:47:33;;;;;;;37.50;18.15;;;;;;;;;;5005149;28;20061;-66
2021/11/03 01:50:00;;;;;;;44.33;16.73;;;;;;;;;;4992294;28;20042;-67
2021/11/03 01:52:26;;;;;;;49.97;17.58;;;;;;;;;;5002528;28;20283;-66
2021/11/03 01:54:55;;;;;;;41.33;15.73;;;;;;;;;;5009126;28;20411;-66
2021/11/03 01:57:27;;;;;;;37.58;15.55;;;;;;;;;;5003596;28;20082;-66
2021/11/03 01:59:56;;;;;;;43.45;15.15;;;;;;;;;;5001782;28;20087;-66
2021/11/03 02:02:23;;;;;;;92.18;17.02;;;;;;;;;;4987273;28;20042;-67
2021/11/03 02:04:49;;;;;;;59.05;18.48;;;;;;;;;;5008449;28;20058;-67
2021/11/03 02:07:18;;;;;;;71.95;16.98;;;;;;;;;;4991461;28;20149;-67
2021/11/03 02:09:44;;;;;;;;;;;;;;;;;;5002027;28;20050;-67
2021/11/03 02:12:18;;;;;;;69.43;16.80;;;;;;;;;;4989469;28;19921;-67
2021/11/03 02:14:45;;;;;;;57.58;16.38;;;;;;;;;;4973236;28;20053;-67
2021/11/03 02:17:13;;;;;;;31.85;17.35;;;;;;;;;;5008755;28;20046;-67
2021/11/03 02:19:39;;;;;;;32.80;16.33;;;;;;;;;;5001966;28;20131;-67
2021/11/03 02:22:15;;;;;;;34.17;16.50;;;;;;;;;;4993762;28;20112;-66
2021/11/03 02:24:52;;;;;;;43.55;16.83;;;;;;;;;;4997462;28;20648;-67
2021/11/03 02:27:19;;;;;;;82.93;17.30;;;;;;;;;;4995589;28;20061;-67
2021/11/03 02:29:49;;;;;;;113.25;19.98;;;;;;;;;;4983264;28;20057;-67
2021/11/03 02:32:17;;;;;;;103.95;17.45;;;;;;;;;;4999785;28;20445;-67
2021/11/03 02:34:44;;;;;;;119.18;17.60;;;;;;;;;;5008159;28;20072;-67
2021/11/03 02:37:25;;;;;;;41.40;15.75;;;;;;;;;;5002566;28;20153;-68
2021/11/03 02:39:56;;;;;;;64.63;15.10;;;;;;;;;;4991089;28;20069;-65
2021/11/03 02:42:23;;;;;;;110.13;17.08;;;;;;;;;;5001938;28;20054;-68
2021/11/03 02:44:51;;;;;;;69.55;15.98;;;;;;;;;;5008350;28;20406;-69
2021/11/03 02:47:17;;;;;;;81.97;15.88;;;;;;;;;;5008002;28;20050;-68
2021/11/03 02:49:43;;;;;;;59.88;14.57;;;;;;;;;;4987693;28;20050;-68
2021/11/03 02:52:18;;;;;;;65.38;15.25;;;;;;;;;;4999230;28;20050;-68
2021/11/03 02:54:44;;;;;;;50.78;14.93;;;;;;;;;;4999570;28;20054;-68
2021/11/03 02:57:11;;;;;;;115.95;17.63;;;;;;;;;;5008579;28;20392;-68
2021/11/03 02:59:37;;;;;;;136.93;19.45;;;;;;;;;;5001339;28;20426;-68
2021/11/03 03:02:05;;;;;;;60.92;16.23;;;;;;;;;;4993595;28;20117;-69
2021/11/03 03:04:34;;;;;;;190.77;17.40;;;;;;;;;;4979786;28;20100;-69
2021/11/03 03:07:00;;;;;;;;;;;;;;;;;;5002999;28;20061;-69
2021/11/03 03:09:27;;;;;;;73.00;16.50;;;;;;;;;;5007783;28;19972;-69
2021/11/03 03:11:55;;;;;;;67.32;17.05;;;;;;;;;;5000616;28;20062;-69
2021/11/03 03:14:23;;;;;;;50.75;16.33;;;;;;;;;;4991310;28;20046;-69
2021/11/03 03:16:49;;;;;;;50.83;18.20;;;;;;;;;;5000901;28;20060;-69
2021/11/03 03:19:15;;;;;;;39.67;16.02;;;;;;;;;;5003339;28;20191;-68
2021/11/03 03:21:42;;;;;;;39.15;15.57;;;;;;;;;;4998876;28;20072;-69
2021/11/03 03:24:10;;;;;;;39.15;15.80;;;;;;;;;;5004377;28;20064;-68
2021/11/03 03:26:37;;;;;;;25.30;15.32;;;;;;;;;;5006590;28;20062;-68
2021/11/03 03:29:04;;;;;;;32.20;15.27;;;;;;;;;;5000818;28;20054;-68
2021/11/03 03:31:31;;;;;;;41.28;16.13;;;;;;;;;;5005255;28;20046;-69
2021/11/03 03:33:59;;;;;;;41.05;16.70;;;;;;;;;;4996373;28;20603;-68
2021/11/03 03:36:26;;;;;;;111.32;18.02;;;;;;;;;;5004397;28;20050;-69
2021/11/03 03:38:52;;;;;;;67.82;17.92;;;;;;;;;;4982407;28;20058;-68
2021/11/03 03:41:20;;;;;;;76.10;16.58;;;;;;;;;;5002142;28;20726;-67
2021/11/03 03:43:46;;;;;;;62.05;16.83;;;;;;;;;;5007469;28;20049;-67
2021/11/03 03:46:13;;;;;;;99.95;19.85;;;;;;;;;;4998720;28;20050;-67
2021/11/03 03:48:40;;;;;;;104.28;17.60;;;;;;;;;;4997217;28;20054;-67
2021/11/03 03:51:07;;;;;;;90.90;15.27;;;;;;;;;;5000021;28;20054;-67
2021/11/03 03:53:34;;;;;;;136.37;19.47;;;;;;;;;;5006520;28;20050;-67
2021/11/03 03:56:10;;;;;;;133.45;17.85;;;;;;;;;;5000695;28;20386;-67
2021/11/03 03:58:36;;;;;;;295.83;21.50;;;;;;;;;;5005832;28;20054;-67
2021/11/03 04:01:04;;;;;;;114.55;16.45;;;;;;;;;;5004480;28;20056;-67
2021/11/03 04:03:34;;;;;;;123.88;17.88;;;;;;;;;;4999800;28;20050;-68
2021/11/03 04:06:00;;;;;;;215.77;18.88;;;;;;;;;;5007586;28;20050;-68
2021/11/03 04:08:26;;;;;;;141.65;18.75;;;;;;;;;;4986447;28;20513;-67
2021/11/03 04:10:53;;;;;;;192.02;19.42;;;;;;;;;;5002796;28;20637;-67
2021/11/03 04:13:20;;;;;;;186.23;18.52;;;;;;;;;;4995608;28;20050;-68
2021/11/03 04:15:50;;;;;;;157.15;20.85;;;;;;;;;;4989920;28;20058;-67
2021/11/03 04:18:16;;;;;;;152.23;17.00;;;;;;;;;;4989493;28;20046;-67
2021/11/03 04:20:43;;;;;;;42.45;14.10;;;;;;;;;;4997719;28;20447;-67
2021/11/03 04:23:09;;;;;;;120.68;17.08;;;;;;;;;;5007178;28;20045;-67
2021/11/03 04:25:36;;;;;;;100.95;16.58;;;;;;;;;;4996754;28;20046;-67
2021/11/03 04:28:03;;;;;;;65.93;15.85;;;;;;;;;;5002440;28;20746;-67
2021/11/03 04:30:30;;;;;;;38.83;14.18;;;;;;;;;;5000726;28;20058;-67
2021/11/03 04:32:56;;;;;;;86.95;15.48;;;;;;;;;;5003751;28;20733;-68
2021/11/03 04:35:23;;;;;;;42.92;13.77;;;;;;;;;;5006851;28;20546;-68
2021/11/03 04:37:50;;;;;;;40.60;14.95;;;;;;;;;;5001887;28;20053;-67
2021/11/03 04:40:17;;;;;;;58.95;14.75;;;;;;;;;;5005284;28;20049;-68
2021/11/03 04:42:44;;;;;;;48.30;14.52;;;;;;;;;;4999680;28;20514;-67
2021/11/03 04:45:10;;;;;;;52.65;15.18;;;;;;;;;;5010411;28;20410;-67
2021/11/03 04:47:37;;;;;;;74.72;16.35;;;;;;;;;;5004080;28;20089;-68
2021/11/03 04:50:05;;;;;;;57.63;17.17;;;;;;;;;;5003444;28;20054;-67
2021/11/03 04:52:32;;;;;;;44.78;14.63;;;;;;;;;;5009376;28;20503;-67
2021/11/03 04:54:58;;;;;;;24.48;14.10;;;;;;;;;;4997551;28;20136;-67
2021/11/03 04:57:24;;;;;;;59.45;14.60;;;;;;;;;;5010635;28;20057;-67
2021/11/03 04:59:51;;;;;;;49.38;13.68;;;;;;;;;;5003286;28;20050;-68
2021/11/03 05:02:18;;;;;;;38.85;14.35;;;;;;;;;;5002907;28;20434;-67
2021/11/03 05:04:44;;;;;;;33.13;13.98;;;;;;;;;;5003556;28;20058;-67
2021/11/03 05:07:11;;;;;;;67.68;15.63;;;;;;;;;;5004884;28;20081;-67
2021/11/03 05:09:37;;;;;;;58.45;14.60;;;;;;;;;;5004942;28;20053;-67
2021/11/03 05:12:04;;;;;;;52.33;15.95;;;;;;;;;;5003181;28;20056;-67
2021/11/03 05:14:31;;;;;;;52.25;12.82;;;;;;;;;;5003702;28;20050;-67
2021/11/03 05:16:57;;;;;;;45.20;14.98;;;;;;;;;;4990544;28;20050;-67
2021/11/03 05:19:25;;;;;;;79.22;15.55;;;;;;;;;;5009069;28;20042;-68
2021/11/03 05:21:52;;;;;;;33.60;15.52;;;;;;;;;;4994782;28;20198;-68
2021/11/03 05:24:19;;;;;;;42.40;13.93;;;;;;;;;;4999547;28;20065;-68
2021/11/03 05:26:45;;;;;;;48.70;14.27;;;;;;;;;;5009620;28;20076;-68
2021/11/03 05:29:12;;;;;;;38.50;15.23;;;;;;;;;;5002200;28;20054;-68
2021/11/03 05:31:39;;;;;;;59.05;14.68;;;;;;;;;;5000718;28;20057;-68
2021/11/03 05:34:05;;;;;;;64.80;14.68;;;;;;;;;;4987159;28;20739;-68
2021/11/03 05:36:32;;;;;;;65.28;14.75;;;;;;;;;;4979619;28;20050;-68
2021/11/03 05:38:59;;;;;;;112.00;16.77;;;;;;;;;;4998771;28;20050;-68
2021/11/03 05:41:26;;;;;;;49.80;13.63;;;;;;;;;;5009243;28;20454;-68
2021/11/03 05:43:52;;;;;;;88.15;15.55;;;;;;;;;;5009512;28;20057;-68
2021/11/03 05:46:22;;;;;;;131.35;15.75;;;;;;;;;;4998056;28;20058;-68
2021/11/03 05:48:49;;;;;;;101.97;17.23;;;;;;;;;;4995952;28;20109;-68
2021/11/03 05:51:16;;;;;;;98.53;15.90;;;;;;;;;;4998372;28;20499;-68
2021/11/03 05:53:42;;;;;;;102.97;16.65;;;;;;;;;;4993166;28;20057;-67
2021/11/03 05:56:09;;;;;;;117.30;16.08;;;;;;;;;;5002139;28;20058;-68
2021/11/03 05:58:36;;;;;;;128.80;14.98;;;;;;;;;;5002262;28;20069;-68
2021/11/03 06:01:03;;;;;;;187.40;16.45;;;;;;;;;;4990129;28;20057;-68
2021/11/03 06:03:30;;;;;;;101.93;15.75;;;;;;;;;;4976945;28;20073;-68
2021/11/03 06:05:56;;;;;;;105.72;14.95;;;;;;;;;;4989119;28;20069;-67
2021/11/03 06:08:23;;;;;;;55.28;13.77;;;;;;;;;;4981558;28;20042;-68
2021/11/03 06:10:50;;;;;;;72.95;14.20;;;;;;;;;;4987003;28;20403;-68
2021/11/03 06:13:19;;;;;;;93.40;15.73;;;;;;;;;;4989781;28;20389;-68
2021/11/03 06:15:46;;;;;;;88.82;16.10;;;;;;;;;;5003021;28;20042;-68
2021/11/03 06:18:12;;;;;;;76.80;15.18;;;;;;;;;;4998209;28;20052;-68
2021/11/03 06:20:38;;;;;;;115.45;16.45;;;;;;;;;;4995546;28;20074;-68
2021/11/03 06:23:05;;;;;;;128.60;15.70;;;;;;;;;;4990484;28;20054;-68
2021/11/03 06:25:32;;;;;;;60.25;16.52;;;;;;;;;;4982796;28;20046;-68
2021/11/03 06:27:58;;;;;;;54.60;15.45;;;;;;;;;;4991731;28;20749;-68
2021/11/03 06:30:27;;;;;;;87.00;15.05;;;;;;;;;;4976614;28;20054;-67
2021/11/03 06:32:53;;;;;;;62.60;15.48;;;;;;;;;;4996220;28;20053;-67
2021/11/03 06:35:20;;;;;;;99.45;15.88;;;;;;;;;;5008631;28;20057;-67
2021/11/03 06:37:46;;;;;;;67.32;16.40;;;;;;;;;;5002306;28;20485;-67
2021/11/03 06:40:15;;;;;;;81.30;16.95;;;;;;;;;;4995900;28;20066;-67
2021/11/03 06:42:41;;;;;;;66.80;16.63;;;;;;;;;;4970143;28;20054;-67
2021/11/03 06:45:08;;;;;;;90.82;18.60;;;;;;;;;;4974660;28;20050;-67
2021/11/03 06:47:35;;;;;;;74.93;17.87;;;;;;;;;;4975963;28;20047;-69
2021/11/03 06:50:03;;;;;;;61.88;16.17;;;;;;;;;;4983146;28;20284;-67
2021/11/03 06:52:30;;;;;;;93.95;20.70;;;;;;;;;;4977228;28;20057;-67
2021/11/03 06:54:56;;;;;;;105.95;19.85;;;;;;;;;;5001635;28;20057;-67
2021/11/03 06:57:22;;;;;;;93.57;22.77;;;;;;;;;;5004915;28;20050;-67
2021/11/03 06:59:50;;;;;;;126.22;21.77;;;;;;;;;;4996332;28;20050;-68
2021/11/03 07:02:17;;;;;;;170.02;20.63;;;;;;;;;;4978596;28;20049;-68
2021/11/03 07:04:43;;;;;;;144.02;20.75;;;;;;;;;;4980645;28;20053;-68
2021/11/03 07:07:10;;;;;;;94.97;19.40;;;;;;;;;;4997503;28;20054;-67
2021/11/03 07:09:37;;;;;;;71.38;18.45;;;;;;;;;;4997980;28;20064;-68
2021/11/03 07:12:03;;;;;;;73.00;20.42;;;;;;;;;;4987833;28;20095;-68
2021/11/03 07:14:30;;;;;;;124.20;21.58;;;;;;;;;;4997399;28;20049;-67
2021/11/03 07:16:56;;;;;;;63.70;20.52;;;;;;;;;;4989709;28;20053;-68
2021/11/03 07:19:22;;;;;;;66.82;21.20;;;;;;;;;;4998615;28;20050;-67
2021/11/03 07:21:49;;;;;;;39.10;19.10;;;;;;;;;;4989921;28;20395;-67
2021/11/03 07:24:15;;;;;;;62.60;21.08;;;;;;;;;;4990063;28;20427;-68
2021/11/03 07:26:42;;;;;;;65.18;20.50;;;;;;;;;;4994478;28;20049;-67
2021/11/03 07:29:10;;;;;;;72.65;22.52;;;;;;;;;;4971836;28;20458;-67
2021/11/03 07:31:36;;;;;;;79.38;21.40;;;;;;;;;;4992960;28;20065;-67
2021/11/03 07:34:03;;;;;;;51.17;21.23;;;;;;;;;;4972893;28;20054;-67
2021/11/03 07:36:32;;;;;;;49.40;19.90;;;;;;;;;;4979198;28;20042;-67
2021/11/03 07:38:58;;;;;;;;;;;;;;;;;;4995050;28;20099;-67
2021/11/03 07:41:30;;;;;;;45.30;18.58;;;;;;;;;;5007677;28;19926;-68
2021/11/03 07:43:57;;;;;;;43.13;18.02;;;;;;;;;;5005650;28;20069;-68
2021/11/03 07:46:23;;;;;;;45.42;18.35;;;;;;;;;;4994572;28;20045;-67
2021/11/03 07:48:50;;;;;;;42.65;17.88;;;;;;;;;;4993263;28;20129;-68
2021/11/03 07:51:17;;;;;;;45.05;17.95;;;;;;;;;;4988529;28;20054;-67
2021/11/03 07:53:45;;;;;;;44.28;17.52;;;;;;;;;;5006743;28;20053;-68
2021/11/03 07:56:16;;;;;;;42.58;18.52;;;;;;;;;;4999790;28;20549;-68
2021/11/03 07:58:43;;;;;;;42.78;19.55;;;;;;;;;;4995945;28;20456;-68
2021/11/03 08:01:09;;;;;;;29.98;18.35;;;;;;;;;;4990479;28;20050;-68
2021/11/03 08:03:37;;;;;;;42.63;18.40;;;;;;;;;;4992691;28;20197;-67
2021/11/03 08:06:04;;;;;;;28.55;16.15;;;;;;;;;;5006580;28;20056;-67
2021/11/03 08:08:31;;;;;;;37.05;17.40;;;;;;;;;;5000855;28;20065;-68
2021/11/03 08:10:58;;;;;;;31.85;18.05;;;;;;;;;;5008007;28;20057;-67
2021/11/03 08:13:27;;;;;;;33.45;16.80;;;;;;;;;;4994840;28;20058;-67
2021/11/03 08:15:54;;;;;;;30.52;17.05;;;;;;;;;;4996105;28;20080;-67
2021/11/03 08:18:22;;;;;;;29.23;18.55;;;;;;;;;;5003836;28;20061;-67
2021/11/03 08:20:48;;;;;;;29.52;17.95;;;;;;;;;;4995043;28;20060;-67
2021/11/03 08:23:15;;;;;;;30.77;18.85;;;;;;;;;;5005813;28;20046;-68
2021/11/03 08:25:42;;;;;;;29.83;18.83;;;;;;;;;;4999959;28;20065;-67
2021/11/03 08:28:09;;;;;;;30.27;19.20;;;;;;;;;;5006138;28;20060;-68
2021/11/03 08:30:37;;;;;;;31.67;20.13;;;;;;;;;;4980793;28;20435;-68
2021/11/03 08:33:09;;;;;;;30.98;18.98;;;;;;;;;;4995589;28;20057;-67
2021/11/03 08:35:37;;;;;;;32.85;19.92;;;;;;;;;;5005151;28;20072;-67
2021/11/03 08:38:06;;;;;;;32.40;18.77;;;;;;;;;;4997067;28;20488;-68
2021/11/03 08:40:33;;;;;;;33.50;20.00;;;;;;;;;;5005029;28;20054;-67
2021/11/03 08:43:00;;;;;;;36.33;19.10;;;;;;;;;;5000121;28;20045;-67
2021/11/03 08:45:27;;;;;;;36.60;19.13;;;;;;;;;;5008479;28;20050;-67
2021/11/03 08:47:54;;;;;;;35.47;21.83;;;;;;;;;;4996548;28;20057;-67
2021/11/03 08:50:22;;;;;;;38.55;21.00;;;;;;;;;;4993109;28;20065;-67
2021/11/03 08:52:49;;;;;;;35.78;20.42;;;;;;;;;;5003186;28;20053;-67
2021/11/03 08:55:15;;;;;;;36.92;21.60;;;;;;;;;;5003405;28;20048;-67
2021/11/03 08:57:42;;;;;;;36.83;20.98;;;;;;;;;;5009460;28;20074;-67
2021/11/03 09:00:10;;;;;;;37.60;21.25;;;;;;;;;;5004422;28;20161;-67
2021/11/03 09:02:37;;;;;;;40.15;22.75;;;;;;;;;;5006678;28;20133;-67
2021/11/03 09:05:04;;;;;;;37.88;21.08;;;;;;;;;;5004071;28;20577;-67
2021/11/03 09:07:32;;;;;;;36.67;21.35;;;;;;;;;;5005437;28;20050;-67
2021/11/03 09:10:00;;;;;;;35.72;20.83;;;;;;;;;;4991753;28;20058;-67
2021/11/03 09:12:26;;;;;;;35.40;21.38;;;;;;;;;;4998456;28;20141;-67
2021/11/03 09:14:53;;;;;;;38.70;21.30;;;;;;;;;;4992136;28;20358;-67
2021/11/03 09:17:20;;;;;;;37.60;21.02;;;;;;;;;;4979858;28;20047;-67
2021/11/03 09:19:47;;;;;;;41.33;23.08;;;;;;;;;;4989159;28;20048;-67
2021/11/03 09:22:13;;;;;;;41.65;21.80;;;;;;;;;;4978601;28;20054;-67
2021/11/03 09:24:40;;;;;;;40.17;21.27;;;;;;;;;;5002124;28;20050;-67
2021/11/03 09:27:14;;;;;;;39.08;21.75;;;;;;;;;;4986831;28;20046;-67
2021/11/03 09:29:48;;;;;;;36.30;21.02;;;;;;;;;;4988046;28;20053;-67
2021/11/03 09:32:16;;;;;;;39.38;20.90;;;;;;;;;;4987948;28;20046;-67
2021/11/03 09:34:43;;;;;;;45.15;22.98;;;;;;;;;;4983148;28;20519;-67
2021/11/03 09:37:10;;;;;;;46.58;25.40;;;;;;;;;;4982744;28;20042;-67
2021/11/03 09:39:38;;;;;;;43.27;22.63;;;;;;;;;;4980625;28;20451;-67
2021/11/03 09:42:05;;;;;;;39.78;22.25;;;;;;;;;;4990049;28;20799;-66
2021/11/03 09:44:33;;;;;;;46.33;23.65;;;;;;;;;;4981788;28;20058;-67
2021/11/03 09:47:21;;;;;;;41.22;23.85;;;;;;;;;;4992068;28;20054;-67
2021/11/03 09:50:20;;;;;;;45.08;22.52;;;;;;;;;;4991980;28;20054;-67
2021/11/03 09:52:57;;;;;;;42.88;23.20;;;;;;;;;;4951857;28;20050;-67
2021/11/03 09:55:29;;;;;;;48.85;23.10;;;;;;;;;;5007215;28;20053;-67
2021/11/03 09:58:11;;;;;;;42.08;21.52;;;;;;;;;;5008860;28;20061;-67
2021/11/03 10:00:41;;;;;;;44.35;22.73;;;;;;;;;;5005390;28;20054;-68
2021/11/03 10:03:19;;;;;;;42.47;23.90;;;;;;;;;;4997883;28;20041;-67
2021/11/03 10:05:48;;;;;;;44.95;25.00;;;;;;;;;;5002707;28;20265;-67
2021/11/03 10:08:16;;;;;;;56.80;24.70;;;;;;;;;;5001969;28;20111;-67
2021/11/03 10:10:50;;;;;;;50.53;26.27;;;;;;;;;;5008831;28;20053;-67
2021/11/03 10:13:30;;;;;;;52.08;27.77;;;;;;;;;;4996074;28;21616;-67
2021/11/03 10:15:58;;;;;;;53.13;28.15;;;;;;;;;;5001241;28;20701;-66
2021/11/03 10:18:25;;;;;;;51.33;27.60;;;;;;;;;;4989865;28;20054;-67
2021/11/03 10:20:58;;;;;;;49.75;25.50;;;;;;;;;;4990101;28;20088;-66
2021/11/03 10:23:27;;;;;;;54.13;26.27;;;;;;;;;;4990096;28;20600;-66
2021/11/03 10:25:56;;;;;;;48.40;26.67;;;;;;;;;;4973389;28;20046;-66
2021/11/03 10:28:27;;;;;;;54.17;26.17;;;;;;;;;;4992099;28;20045;-67
2021/11/03 10:30:54;;;;;;;42.60;24.75;;;;;;;;;;4988870;28;20050;-67
2021/11/03 10:33:41;;;;;;;48.53;25.90;;;;;;;;;;4990160;28;20042;-67
2021/11/03 10:36:13;;;;;;;48.22;25.27;;;;;;;;;;4988934;28;20513;-67
2021/11/03 10:38:42;;;;;;;56.20;27.25;;;;;;;;;;4999360;28;20418;-67
2021/11/03 10:41:17;;;;;;;45.20;25.50;;;;;;;;;;4989235;28;20054;-67
2021/11/03 10:43:44;;;;;;;46.08;25.45;;;;;;;;;;4991870;28;20387;-67
2021/11/03 10:46:24;;;;;;;48.05;25.58;;;;;;;;;;4992438;28;20050;-67
2021/11/03 10:48:52;;;;;;;46.10;23.85;;;;;;;;;;4981855;28;20081;-67
2021/11/03 10:51:21;;;;;;;48.63;25.80;;;;;;;;;;4985834;28;20049;-67
2021/11/03 10:53:47;;;;;;;;;;;;;;;;;;4988677;28;20387;-66
2021/11/03 10:56:26;;;;;;;49.70;24.92;;;;;;;;;;5076945;27;20382;-67
2021/11/03 10:59:00;;;;;;;49.88;24.83;;;;;;;;;;5064070;28;20056;-67
2021/11/03 11:01:29;;;;;;;45.42;24.45;;;;;;;;;;5073552;28;20056;-67
2021/11/03 11:03:59;;;;;;;42.03;22.50;;;;;;;;;;5063437;28;20048;-67
2021/11/03 11:06:31;;;;;;;46.13;23.50;;;;;;;;;;5058542;28;20049;-68
2021/11/03 11:08:57;;;;;;;46.38;23.08;;;;;;;;;;5064449;28;20063;-67
2021/11/03 11:11:24;;;;;;;45.20;24.15;;;;;;;;;;5070069;28;20056;-67
2021/11/03 11:13:57;;;;;;;45.13;24.48;;;;;;;;;;5071133;28;20662;-67
2021/11/03 11:16:40;;;;;;;47.17;24.50;;;;;;;;;;5058467;28;20353;-67
2021/11/03 11:19:06;;;;;;;44.85;23.27;;;;;;;;;;5064754;28;20490;-67
2021/11/03 11:21:38;;;;;;;52.30;25.40;;;;;;;;;;5059596;28;20083;-67
2021/11/03 11:24:14;;;;;;;50.33;24.00;;;;;;;;;;5074057;28;20060;-67
2021/11/03 11:26:46;;;;;;;55.88;27.58;;;;;;;;;;5059802;28;20045;-67
2021/11/03 11:29:36;;;;;;;50.90;26.35;;;;;;;;;;5056120;28;20700;-68
2021/11/03 11:32:04;;;;;;;45.92;24.15;;;;;;;;;;5052873;28;20049;-69
2021/11/03 11:34:45;;;;;;;51.22;26.60;;;;;;;;;;5055186;28;20055;-68
2021/11/03 11:37:26;;;;;;;51.63;27.63;;;;;;;;;;5052309;28;20053;-68
2021/11/03 11:39:57;;;;;;;52.47;27.85;;;;;;;;;;5034646;28;20056;-69
2021/11/03 11:42:35;;;;;;;52.28;28.27;;;;;;;;;;5054871;28;20147;-69
2021/11/03 11:45:21;;;;;;;59.83;32.92;;;;;;;;;;5040650;28;20053;-69
2021/11/03 11:47:56;;;;;;;58.95;28.90;;;;;;;;;;5062171;28;20053;-69
2021/11/03 11:50:23;;;;;;;49.65;27.33;;;;;;;;;;5051966;28;20064;-68
2021/11/03 11:52:49;;;;;;;52.28;27.95;;;;;;;;;;5040999;28;20049;-69
2021/11/03 11:55:15;;;;;;;60.58;29.90;;;;;;;;;;5040937;28;20421;-69
2021/11/03 11:57:42;;;;;;;51.35;28.10;;;;;;;;;;5039412;28;20496;-69
2021/11/03 12:00:09;;;;;;;55.05;29.88;;;;;;;;;;5046449;28;20509;-69
2021/11/03 12:02:50;;;;;;;57.35;29.25;;;;;;;;;;5051972;28;20045;-69
2021/11/03 12:05:26;;;;;;;55.85;28.20;;;;;;;;;;5058466;28;20409;-69
2021/11/03 12:08:14;;;;;;;53.85;28.67;;;;;;;;;;5020456;28;20451;-69
2021/11/03 12:10:40;;;;;;;;;;;;;;;;;;5032803;28;20414;-69
2021/11/03 12:13:45;;;;;;;56.05;27.58;;;;;;;;;;5026690;28;19968;-69
2021/11/03 12:16:11;;;;;;;51.90;27.52;;;;;;;;;;5021642;28;20084;-69
2021/11/03 12:18:38;;;;;;;56.58;27.58;;;;;;;;;;5027094;28;20049;-70
2021/11/03 12:21:04;;;;;;;50.25;26.65;;;;;;;;;;5028139;28;20051;-69
2021/11/03 12:23:50;;;;;;;53.33;27.13;;;;;;;;;;5029137;28;20083;-69
2021/11/03 12:26:26;;;;;;;53.20;27.20;;;;;;;;;;5028262;28;20054;-69
2021/11/03 12:28:58;;;;;;;49.00;25.73;;;;;;;;;;5031880;28;20053;-67
2021/11/03 12:31:28;;;;;;;59.35;28.25;;;;;;;;;;5024937;28;20058;-67
2021/11/03 12:34:03;;;;;;;57.70;27.20;;;;;;;;;;5029637;28;20057;-67
2021/11/03 12:36:32;;;;;;;60.88;28.23;;;;;;;;;;5020079;28;20050;-68
2021/11/03 12:39:00;;;;;;;61.88;28.42;;;;;;;;;;5032609;28;20045;-68
2021/11/03 12:41:29;;;;;;;60.80;28.73;;;;;;;;;;5025595;28;20076;-67
2021/11/03 12:43:58;;;;;;;52.30;27.45;;;;;;;;;;5031524;28;20057;-67
2021/11/03 12:46:25;;;;;;;54.95;27.85;;;;;;;;;;5030095;28;20041;-67
2021/11/03 12:48:55;;;;;;;58.33;28.27;;;;;;;;;;5025519;28;20967;-67
2021/11/03 12:51:29;;;;;;;56.92;28.20;;;;;;;;;;5040313;28;20056;-68
2021/11/03 12:54:01;;;;;;;63.70;28.55;;;;;;;;;;5024811;28;20053;-67
2021/11/03 12:56:29;;;;;;;60.58;28.42;;;;;;;;;;5031922;28;20041;-67
2021/11/03 12:58:57;;;;;;;64.40;29.17;;;;;;;;;;5024284;28;20106;-67
2021/11/03 13:01:31;;;;;;;68.33;28.70;;;;;;;;;;5037314;28;20063;-67
2021/11/03 13:04:10;;;;;;;64.25;28.02;;;;;;;;;;5025533;28;20560;-67
2021/11/03 13:06:37;;;;;;;;;;;;;;;;;;5031584;28;20051;-68
2021/11/03 13:09:03;;;;;;;54.50;25.30;;;;;;;;;;5031465;28;19925;-67
2021/11/03 13:11:36;;;;;;;55.13;26.00;;;;;;;;;;5025311;28;20049;-67
2021/11/03 13:14:16;;;;;;;56.20;28.15;;;;;;;;;;5045659;28;20053;-67
2021/11/03 13:16:44;;;;;;;50.40;27.08;;;;;;;;;;5017745;28;20314;-67
2021/11/03 13:19:26;;;;;;;56.83;28.85;;;;;;;;;;5029929;28;20064;-67
2021/11/03 13:21:52;;;;;;;59.67;29.55;;;;;;;;;;5025750;28;20069;-67
2021/11/03 13:24:20;;;;;;;55.50;28.65;;;;;;;;;;5033956;28;20049;-67
2021/11/03 13:26:47;;;;;;;60.90;29.30;;;;;;;;;;5024495;28;20495;-68
2021/11/03 13:29:26;;;;;;;67.65;30.38;;;;;;;;;;5025862;28;20418;-67
2021/11/03 13:32:01;;;;;;;61.30;28.13;;;;;;;;;;5026111;28;20866;-67
2021/11/03 13:34:28;;;;;;;62.97;30.90;;;;;;;;;;5026761;28;20136;-67
2021/11/03 13:36:54;;;;;;;61.08;29.55;;;;;;;;;;5029295;28;20055;-67
2021/11/03 13:39:23;;;;;;;59.03;28.50;;;;;;;;;;5024944;28;20057;-67
2021/11/03 13:41:50;;;;;;;54.95;26.80;;;;;;;;;;5030368;28;20051;-67
2021/11/03 13:44:16;;;;;;;51.88;26.75;;;;;;;;;;5017985;28;20049;-67
2021/11/03 13:46:44;;;;;;;55.92;27.23;;;;;;;;;;5026691;28;20053;-67
2021/11/03 13:49:22;;;;;;;57.80;28.05;;;;;;;;;;5028490;28;20057;-67
2021/11/03 13:51:52;;;;;;;48.97;26.52;;;;;;;;;;5030286;28;20057;-66
2021/11/03 13:54:27;;;;;;;52.17;26.55;;;;;;;;;;5030709;28;20049;-67
2021/11/03 13:56:55;;;;;;;54.45;26.05;;;;;;;;;;5019363;28;20082;-67
2021/11/03 13:59:23;;;;;;;59.40;27.42;;;;;;;;;;5025948;28;20053;-67
2021/11/03 14:01:51;;;;;;;53.05;26.23;;;;;;;;;;5025983;28;20053;-67
2021/11/03 14:04:19;;;;;;;54.78;27.00;;;;;;;;;;5030464;28;20053;-67
2021/11/03 14:07:04;;;;;;;48.35;26.38;;;;;;;;;;5023878;28;20053;-67
2021/11/03 14:09:30;;;;;;;51.58;26.40;;;;;;;;;;5030330;28;20054;-67
2021/11/03 14:11:58;;;;;;;54.17;27.60;;;;;;;;;;5019408;28;20502;-68
2021/11/03 14:14:25;;;;;;;49.35;26.27;;;;;;;;;;5043470;28;20049;-67
2021/11/03 14:17:10;;;;;;;46.30;24.60;;;;;;;;;;5031166;28;20049;-67
2021/11/03 14:19:36;;;;;;;49.65;26.00;;;;;;;;;;5023544;28;20137;-67
2021/11/03 14:22:03;;;;;;;52.55;26.33;;;;;;;;;;5033289;28;20063;-67
2021/11/03 14:24:31;;;;;;;53.40;27.05;;;;;;;;;;5026740;28;20045;-67
2021/11/03 14:26:58;;;;;;;57.13;27.02;;;;;;;;;;5023079;28;20048;-67
2021/11/03 14:29:24;;;;;;;57.40;28.00;;;;;;;;;;5023208;28;20509;-67